createdAt,value
2022-10-28T00:01:10.359Z,15.70
2022-10-28T00:03:39.893Z,15.70
2022-10-28T00:06:09.734Z,15.70
2022-10-28T00:08:38.226Z,15.70
2022-10-28T00:11:10.093Z,15.70
2022-10-28T00:13:38.433Z,15.60
2022-10-28T00:16:08.635Z,15.60
2022-10-28T00:18:36.780Z,15.60
2022-10-28T00:21:06.700Z,15.60
2022-10-28T00:23:34.860Z,15.70
2022-10-28T00:26:09.547Z,15.70
2022-10-28T00:28:52.636Z,15.70
2022-10-28T00:31:25.679Z,15.70
2022-10-28T00:33:54.538Z,15.80
2022-10-28T00:36:24.330Z,15.70
2022-10-28T00:38:54.196Z,15.80
2022-10-28T00:41:27.132Z,15.80
2022-10-28T00:43:56.865Z,15.80
2022-10-28T00:46:30.935Z,15.80
2022-10-28T00:49:03.980Z,15.80
2022-10-28T00:51:34.524Z,15.80
2022-10-28T00:54:05.390Z,15.80
2022-10-28T00:56:38.830Z,15.80
2022-10-28T00:59:12.505Z,15.80
2022-10-28T01:01:40.722Z,15.80
2022-10-28T01:04:10.102Z,15.80
2022-10-28T01:06:38.454Z,16.00
2022-10-28T01:09:06.549Z,16.00
2022-10-28T01:11:52.491Z,16.00
2022-10-28T01:14:30.642Z,16.00
2022-10-28T01:17:10.036Z,16.00
2022-10-28T01:20:07.577Z,16.00
2022-10-28T01:22:39.154Z,16.10
2022-10-28T01:25:31.566Z,16.10
2022-10-28T01:28:20.558Z,16.10
2022-10-28T01:31:16.758Z,16.20
2022-10-28T01:33:52.329Z,16.20
2022-10-28T01:36:28.522Z,16.30
2022-10-28T01:39:02.218Z,16.30
2022-10-28T01:41:35.336Z,16.40
2022-10-28T01:44:08.612Z,16.40
2022-10-28T01:46:42.672Z,16.40
2022-10-28T01:49:14.857Z,16.50
2022-10-28T01:51:47.697Z,16.50
2022-10-28T01:54:20.166Z,16.50
2022-10-28T01:56:49.772Z,16.50
2022-10-28T01:59:23.824Z,16.60
2022-10-28T02:01:53.431Z,16.60
2022-10-28T02:04:21.872Z,16.60
2022-10-28T02:07:06.246Z,16.50
2022-10-28T02:09:57.699Z,16.50
2022-10-28T02:12:29.530Z,16.50
2022-10-28T02:15:18.674Z,16.50
2022-10-28T02:17:57.890Z,16.40
2022-10-28T02:20:49.340Z,16.40
2022-10-28T02:23:28.990Z,16.40
2022-10-28T02:26:02.959Z,16.40
2022-10-28T02:28:40.722Z,16.40
2022-10-28T02:31:19.086Z,16.30
2022-10-28T02:33:53.353Z,16.30
2022-10-28T02:36:26.074Z,16.40
2022-10-28T02:39:02.095Z,16.40
2022-10-28T02:41:35.712Z,16.30
2022-10-28T02:44:08.012Z,16.40
2022-10-28T02:46:39.118Z,16.40
2022-10-28T02:49:12.564Z,16.40
2022-10-28T02:52:04.636Z,16.40
2022-10-28T02:54:38.743Z,16.40
2022-10-28T02:57:10.608Z,16.30
2022-10-28T02:59:51.157Z,16.30
2022-10-28T03:02:19.514Z,16.30
2022-10-28T03:04:58.103Z,16.30
2022-10-28T03:07:53.362Z,16.30
2022-10-28T03:11:08.743Z,16.20
2022-10-28T03:14:05.643Z,16.20
2022-10-28T03:17:17.808Z,16.20
2022-10-28T03:20:43.849Z,16.20
2022-10-28T03:23:56.216Z,16.10
2022-10-28T03:26:32.652Z,16.10
2022-10-28T03:29:22.244Z,16.00
2022-10-28T03:31:50.409Z,16.00
2022-10-28T03:35:02.154Z,16.00
2022-10-28T03:37:53.969Z,16.00
2022-10-28T03:40:48.163Z,16.00
2022-10-28T03:43:19.345Z,16.00
2022-10-28T03:45:48.656Z,16.00
2022-10-28T03:48:19.846Z,15.90
2022-10-28T03:50:47.936Z,15.90
2022-10-28T03:53:18.523Z,15.90
2022-10-28T03:55:53.054Z,15.90
2022-10-28T03:58:21.225Z,15.90
2022-10-28T04:00:53.629Z,15.90
2022-10-28T04:03:27.357Z,15.80
2022-10-28T04:05:56.064Z,15.80
2022-10-28T04:08:35.420Z,15.80
2022-10-28T04:11:09.813Z,15.80
2022-10-28T04:13:40.994Z,15.80
2022-10-28T04:16:14.092Z,15.80
2022-10-28T04:21:46.984Z,15.90
2022-10-28T04:24:43.657Z,15.90
2022-10-28T04:27:11.942Z,15.90
2022-10-28T04:29:43.316Z,16.00
2022-10-28T04:32:32.829Z,16.00
2022-10-28T04:35:16.093Z,16.00
2022-10-28T04:37:44.295Z,16.10
2022-10-28T04:40:17.225Z,16.10
2022-10-28T04:42:55.311Z,16.20
2022-10-28T04:45:26.567Z,16.20
2022-10-28T04:48:00.437Z,16.30
2022-10-28T04:55:04.680Z,16.30
2022-10-28T04:57:41.751Z,16.30
2022-10-28T05:05:12.141Z,16.40
2022-10-28T05:07:44.291Z,16.40
2022-10-28T05:10:43.415Z,16.40
2022-10-28T05:20:24.499Z,16.40
2022-10-28T05:22:57.279Z,16.40
2022-10-28T05:25:40.352Z,16.40
2022-10-28T05:28:23.932Z,16.30
2022-10-28T05:30:56.907Z,16.40
2022-10-28T05:33:25.552Z,16.40
2022-10-28T05:36:02.195Z,16.30
2022-10-28T05:38:30.469Z,16.30
2022-10-28T05:40:58.704Z,16.30
2022-10-28T05:43:26.786Z,16.30
2022-10-28T05:45:56.800Z,16.30
2022-10-28T05:48:25.653Z,16.30
2022-10-28T05:50:57.736Z,16.20
2022-10-28T05:53:25.845Z,16.20
2022-10-28T05:55:56.660Z,16.20
2022-10-28T05:58:24.688Z,16.20
2022-10-28T06:00:52.800Z,16.20
2022-10-28T06:03:30.061Z,16.10
2022-10-28T06:06:00.063Z,16.10
2022-10-28T06:08:28.765Z,16.20
2022-10-28T06:10:55.367Z,16.20
2022-10-28T06:13:24.293Z,16.20
2022-10-28T06:15:52.892Z,16.20
2022-10-28T06:18:23.455Z,16.20
2022-10-28T06:20:53.146Z,16.20
2022-10-28T06:23:21.829Z,16.20
2022-10-28T06:25:50.420Z,16.20
2022-10-28T06:28:19.522Z,16.20
2022-10-28T06:30:50.046Z,16.30
2022-10-28T06:33:19.388Z,16.30
2022-10-28T06:36:02.684Z,16.30
2022-10-28T06:38:30.823Z,16.30
2022-10-28T06:40:58.908Z,16.30
2022-10-28T06:43:27.080Z,16.30
2022-10-28T06:45:55.876Z,16.40
2022-10-28T06:48:25.812Z,16.40
2022-10-28T06:50:58.070Z,16.50
2022-10-28T06:53:26.335Z,16.70
2022-10-28T06:55:55.373Z,16.70
2022-10-28T06:58:23.941Z,16.90
2022-10-28T07:00:52.263Z,17.00
2022-10-28T07:03:20.582Z,17.10
2022-10-28T07:05:51.426Z,17.20
2022-10-28T07:08:21.008Z,17.30
2022-10-28T07:10:56.038Z,17.40
2022-10-28T07:13:24.387Z,17.40
2022-10-28T07:15:53.618Z,17.50
2022-10-28T07:18:22.168Z,17.60
2022-10-28T07:20:50.175Z,17.80
2022-10-28T07:23:20.009Z,18.00
2022-10-28T07:28:27.809Z,18.40
2022-10-28T07:30:58.249Z,18.60
2022-10-28T07:33:34.843Z,18.80
2022-10-28T07:36:09.572Z,18.90
2022-10-28T07:38:39.071Z,19.00
2022-10-28T07:41:09.104Z,19.10
2022-10-28T07:43:38.363Z,19.20
2022-10-28T07:46:07.285Z,19.30
2022-10-28T07:48:36.376Z,19.30
2022-10-28T07:51:10.077Z,19.40
2022-10-28T07:53:39.517Z,19.40
2022-10-28T07:56:09.992Z,19.50
2022-10-28T07:58:38.347Z,19.50
2022-10-28T08:01:16.148Z,19.60
2022-10-28T08:03:53.023Z,19.60
2022-10-28T08:06:33.631Z,19.60
2022-10-28T08:09:06.219Z,19.60
2022-10-28T08:11:34.241Z,19.60
2022-10-28T08:14:03.399Z,19.60
2022-10-28T08:16:45.673Z,19.60
2022-10-28T08:19:15.969Z,19.60
2022-10-28T08:21:44.050Z,19.60
2022-10-28T08:24:17.577Z,19.60
2022-10-28T08:26:45.676Z,19.70
2022-10-28T08:29:16.209Z,19.90
2022-10-28T08:32:06.754Z,20.20
2022-10-28T08:34:54.024Z,20.70
2022-10-28T08:38:30.335Z,20.90
2022-10-28T08:41:42.844Z,21.20
2022-10-28T08:45:10.878Z,21.50
2022-10-28T08:47:59.084Z,21.80
2022-10-28T08:50:50.914Z,22.00
2022-10-28T08:53:33.280Z,22.40
2022-10-28T08:56:16.689Z,22.90
2022-10-28T09:03:09.393Z,24.20
2022-10-28T09:06:31.145Z,25.00
2022-10-28T09:09:13.533Z,25.50
2022-10-28T09:12:09.320Z,26.10
2022-10-28T09:14:58.043Z,26.70
2022-10-28T09:17:35.987Z,27.00
2022-10-28T09:20:11.531Z,27.20
2022-10-28T09:22:47.053Z,27.50
2022-10-28T09:25:23.451Z,27.80
2022-10-28T09:28:07.344Z,28.10
2022-10-28T09:30:46.485Z,28.40
2022-10-28T09:33:34.946Z,28.70
2022-10-28T09:36:05.005Z,29.10
2022-10-28T09:38:35.409Z,29.40
2022-10-28T09:41:07.502Z,29.60
2022-10-28T09:43:43.921Z,29.50
2022-10-28T09:46:14.844Z,29.60
2022-10-28T09:48:47.326Z,29.60
2022-10-28T09:51:25.107Z,29.80
2022-10-28T09:53:57.468Z,29.80
2022-10-28T09:56:26.643Z,29.90
2022-10-28T09:58:59.036Z,29.50
2022-10-28T10:01:29.362Z,29.10
2022-10-28T10:03:57.403Z,28.60
2022-10-28T10:06:34.769Z,28.40
2022-10-28T10:09:03.356Z,28.10
2022-10-28T10:11:37.297Z,28.10
2022-10-28T10:14:10.361Z,28.30
2022-10-28T10:16:43.747Z,28.20
2022-10-28T10:19:12.501Z,28.00
2022-10-28T10:21:46.306Z,28.00
2022-10-28T10:24:31.276Z,27.90
2022-10-28T10:27:02.382Z,27.70
2022-10-28T10:29:32.696Z,27.40
2022-10-28T10:32:08.151Z,27.10
2022-10-28T10:34:37.206Z,26.70
2022-10-28T10:37:05.731Z,26.40
2022-10-28T10:39:38.699Z,26.10
2022-10-28T10:42:17.750Z,25.80
2022-10-28T10:44:48.558Z,25.60
2022-10-28T10:47:22.763Z,25.30
2022-10-28T10:50:23.637Z,25.00
2022-10-28T10:53:20.064Z,24.80
2022-10-28T10:56:15.787Z,24.50
2022-10-28T11:02:27.473Z,24.20
2022-10-28T11:05:00.963Z,24.10
2022-10-28T11:07:34.746Z,24.00
2022-10-28T11:10:18.119Z,24.00
2022-10-28T11:12:53.231Z,23.90
2022-10-28T11:15:26.787Z,23.90
2022-10-28T12:28:49.898Z,25.50
2022-10-28T12:31:32.857Z,25.70
2022-10-28T12:34:10.932Z,25.70
2022-10-28T12:47:55.109Z,26.20
2022-10-28T13:00:28.368Z,25.70
2022-10-28T13:03:22.200Z,25.50
2022-10-28T13:23:17.514Z,24.60
2022-10-28T13:38:31.830Z,23.90
2022-10-28T14:18:37.394Z,22.50
2022-10-28T14:35:27.128Z,22.10
2022-10-28T14:44:16.012Z,21.90
2022-10-28T14:55:49.993Z,21.80
2022-10-28T15:03:47.571Z,21.50
2022-10-28T15:15:24.261Z,21.40
2022-10-28T15:17:56.072Z,21.40
2022-10-28T15:20:32.488Z,21.30
2022-10-28T15:23:19.220Z,21.30
2022-10-28T15:26:04.497Z,21.30
2022-10-28T15:28:39.675Z,21.30
2022-10-28T15:31:09.483Z,21.20
2022-10-28T16:18:58.507Z,20.40
2022-10-28T16:21:48.407Z,20.20
2022-10-28T16:24:31.155Z,20.20
2022-10-28T16:27:48.706Z,20.10
2022-10-28T16:33:52.999Z,20.00
2022-10-28T16:36:27.628Z,19.90
2022-10-28T16:39:06.293Z,19.80
2022-10-28T16:42:14.643Z,19.70
2022-10-28T16:45:39.149Z,19.70
2022-10-28T16:48:18.644Z,19.60
2022-10-28T16:50:56.044Z,19.50
2022-10-28T16:53:37.088Z,19.40
2022-10-28T16:56:18.010Z,19.40
2022-10-28T16:59:09.100Z,19.30
2022-10-28T17:01:49.485Z,19.30
2022-10-28T17:04:27.829Z,19.20
2022-10-28T17:07:03.195Z,19.20
2022-10-28T17:09:33.671Z,19.10
2022-10-28T17:12:29.541Z,19.10
2022-10-28T17:15:00.610Z,19.00
2022-10-28T17:17:58.029Z,19.00
2022-10-28T17:20:50.979Z,19.00
2022-10-28T17:23:44.865Z,18.90
2022-10-28T17:26:18.039Z,18.90
2022-10-28T17:28:54.069Z,18.90
2022-10-28T17:41:22.673Z,18.80
2022-10-28T17:44:01.415Z,18.80
2022-10-28T17:46:43.913Z,18.70
2022-10-28T17:49:25.238Z,18.70
2022-10-28T17:52:41.480Z,18.60
2022-10-28T17:55:38.359Z,18.50
2022-10-28T17:58:43.817Z,18.50
2022-10-28T18:01:12.495Z,18.50
2022-10-28T18:03:57.338Z,18.40
2022-10-28T18:06:26.055Z,18.40
2022-10-28T18:09:14.170Z,18.30
2022-10-28T18:11:51.962Z,18.30
2022-10-28T18:14:36.197Z,18.20
2022-10-28T18:17:05.599Z,18.20
2022-10-28T18:19:33.956Z,18.10
2022-10-28T18:22:06.473Z,18.10
2022-10-28T18:28:11.644Z,18.10
2022-10-28T18:31:22.598Z,18.10
2022-10-28T18:33:56.598Z,18.10
2022-10-28T18:36:46.421Z,18.00
2022-10-28T18:39:52.776Z,18.00
2022-10-28T18:42:24.246Z,18.00
2022-10-28T18:44:58.614Z,17.90
2022-10-28T18:47:26.846Z,17.90
2022-10-28T18:50:02.116Z,17.90
2022-10-28T18:52:30.173Z,17.90
2022-10-28T18:55:15.016Z,17.90
2022-10-28T18:57:45.227Z,17.80
2022-10-28T19:00:18.679Z,17.90
2022-10-28T19:02:48.072Z,17.90
2022-10-28T19:05:40.154Z,17.90
2022-10-28T19:08:16.166Z,17.90
2022-10-28T19:11:30.754Z,17.90
2022-10-28T19:14:16.925Z,17.90
2022-10-28T19:16:55.036Z,17.90
2022-10-28T19:19:33.250Z,17.90
2022-10-28T19:22:22.279Z,17.90
2022-10-28T19:24:54.363Z,17.90
2022-10-28T19:27:47.882Z,18.00
2022-10-28T19:33:54.569Z,18.00
2022-10-28T19:36:44.251Z,18.00
2022-10-28T19:40:13.260Z,18.00
2022-10-28T19:43:29.839Z,18.00
2022-10-28T19:49:32.458Z,17.90
2022-10-28T19:52:10.775Z,18.00
2022-10-28T19:54:42.629Z,18.00
2022-10-28T19:57:17.782Z,18.00
2022-10-28T19:59:58.458Z,18.10
2022-10-28T20:02:38.341Z,18.20
2022-10-28T20:05:15.559Z,18.20
2022-10-28T20:07:47.926Z,18.30
2022-10-28T20:10:32.667Z,18.30
2022-10-28T20:14:01.686Z,18.40
2022-10-28T20:17:00.364Z,18.50
2022-10-28T20:20:03.304Z,18.50
2022-10-28T20:24:14.181Z,18.50
2022-10-28T20:27:18.368Z,18.60
2022-10-28T20:30:53.033Z,18.60
2022-10-28T20:33:48.864Z,18.60
2022-10-28T20:36:34.005Z,18.70
2022-10-28T20:42:29.976Z,18.70
2022-10-28T20:45:01.145Z,18.70
2022-10-28T20:47:32.245Z,18.70
2022-10-28T20:50:14.744Z,18.70
2022-10-28T20:53:25.455Z,18.70
2022-10-28T20:56:19.761Z,18.70
2022-10-28T21:00:48.335Z,18.70
2022-10-28T21:03:25.320Z,18.70
2022-10-28T21:11:11.737Z,18.70
2022-10-28T21:26:21.010Z,18.60
2022-10-28T21:32:21.081Z,18.60
2022-10-28T21:35:45.459Z,18.70
2022-10-28T21:39:39.742Z,18.70
2022-10-28T21:42:09.476Z,18.70
2022-10-28T21:44:59.263Z,18.60
2022-10-28T21:52:35.303Z,18.60
2022-10-28T21:55:47.127Z,18.60
2022-10-28T21:59:13.429Z,18.50
2022-10-28T22:01:58.148Z,18.50
2022-10-28T22:15:31.937Z,18.40
2022-10-28T22:27:12.123Z,18.20
2022-10-28T22:34:15.806Z,18.00
2022-10-28T22:37:49.912Z,18.00
2022-10-28T22:41:10.034Z,17.90
2022-10-28T22:52:28.440Z,18.00
2022-10-28T23:02:23.190Z,18.00
2022-10-28T23:05:44.988Z,18.10
2022-10-28T23:08:30.486Z,18.10
2022-10-28T23:11:23.971Z,18.10
2022-10-28T23:13:58.280Z,18.20
2022-10-28T23:16:35.506Z,18.20
2022-10-28T23:19:07.177Z,18.20
2022-10-28T23:21:54.661Z,18.30
2022-10-28T23:31:17.183Z,18.30
2022-10-28T23:34:40.171Z,18.30
2022-10-28T23:45:24.870Z,18.30
2022-10-28T23:48:03.333Z,18.30
2022-10-28T23:50:58.314Z,18.30
2022-10-28T23:53:37.206Z,18.30
2022-10-28T23:56:07.795Z,18.40
2022-10-28T23:58:49.175Z,18.30
